Time;durP1;ratioP1;P1;durP2;ratioP2;P2;SDS_P1;SDS_P2;PMS_P1;PMS_P2;Temp;Humidity;BMP_temperature;BMP_pressure;BME280_temperature;BME280_humidity;BME280_pressure;Samples;Min_cycle;Max_cycle;Signal;HPM_P1;HPM_P2
2023/12/08 00:01:30;;;;;;;9.07;7.43;;;;;;;1.89;100.00;97549.56;5093633;28;20791;-74
2023/12/08 00:03:57;;;;;;;10.27;7.53;;;;;;;1.90;100.00;97559.03;5093666;28;20231;-74
2023/12/08 00:06:23;;;;;;;10.30;8.03;;;;;;;1.87;100.00;97572.47;5094702;28;20207;-74
2023/12/08 00:08:50;;;;;;;10.87;8.20;;;;;;;1.87;100.00;97557.59;5097523;28;20203;-74
2023/12/08 00:11:16;;;;;;;10.70;7.87;;;;;;;1.81;100.00;97567.97;5097636;28;20208;-74
2023/12/08 00:13:44;;;;;;;9.87;7.70;;;;;;;1.80;100.00;97566.34;5097800;28;20241;-74
2023/12/08 00:16:10;;;;;;;10.77;8.03;;;;;;;1.74;100.00;97557.38;5097849;28;20253;-74
2023/12/08 00:18:37;;;;;;;9.57;7.27;;;;;;;1.80;100.00;97540.13;5097318;28;20272;-74
2023/12/08 00:21:03;;;;;;;9.77;7.57;;;;;;;1.79;100.00;97530.63;5097383;28;20564;-74
2023/12/08 00:23:30;;;;;;;9.37;7.43;;;;;;;1.79;100.00;97512.28;5097439;28;20206;-74
2023/12/08 00:25:56;;;;;;;10.23;7.53;;;;;;;2.01;100.00;97485.19;5097492;28;20207;-74
2023/12/08 00:28:23;;;;;;;8.70;7.60;;;;;;;1.94;100.00;97500.03;5097319;28;20204;-74
2023/12/08 00:30:49;;;;;;;8.30;7.23;;;;;;;1.92;100.00;97487.09;5097295;28;20224;-74
2023/12/08 00:33:16;;;;;;;9.60;7.00;;;;;;;1.99;100.00;97459.16;5097207;28;20282;-74
2023/12/08 00:35:42;;;;;;;8.97;6.87;;;;;;;2.04;100.00;97464.72;5097444;28;20214;-74
2023/12/08 00:38:09;;;;;;;8.93;7.27;;;;;;;2.04;100.00;97506.66;5097094;28;20208;-74
2023/12/08 00:40:36;;;;;;;7.67;6.77;;;;;;;2.10;100.00;97484.94;5096945;28;20224;-74
2023/12/08 00:43:02;;;;;;;8.57;7.47;;;;;;;2.12;100.00;97464.59;5097199;28;20214;-74
2023/12/08 00:45:29;;;;;;;8.10;6.67;;;;;;;2.11;100.00;97449.88;5096729;28;20671;-74
2023/12/08 00:47:55;;;;;;;7.53;6.40;;;;;;;2.19;100.00;97452.41;5096717;28;20268;-74
2023/12/08 00:50:21;;;;;;;8.83;6.27;;;;;;;2.15;100.00;97466.03;5096825;28;20227;-74
2023/12/08 00:52:48;;;;;;;8.40;6.60;;;;;;;2.12;100.00;97496.06;5097662;28;20204;-74
2023/12/08 00:55:14;;;;;;;7.47;6.70;;;;;;;2.29;100.00;97484.41;5096930;28;20214;-74
2023/12/08 00:57:41;;;;;;;8.27;6.73;;;;;;;2.18;100.00;97477.00;5096482;28;20210;-74
2023/12/08 01:00:08;;;;;;;8.10;6.87;;;;;;;2.15;100.00;97484.41;5096185;28;20228;-74
2023/12/08 01:02:34;;;;;;;8.63;7.13;;;;;;;2.05;100.00;97518.75;5096537;28;20206;-74
2023/12/08 01:05:01;;;;;;;8.77;7.40;;;;;;;2.18;100.00;97486.66;5096534;28;20211;-74
2023/12/08 01:07:27;;;;;;;9.37;7.57;;;;;;;2.12;100.00;97479.53;5096313;28;20206;-74
2023/12/08 01:09:53;;;;;;;9.03;7.57;;;;;;;2.12;100.00;97475.09;5096472;28;20220;-74
2023/12/08 01:12:20;;;;;;;8.87;7.80;;;;;;;2.14;100.00;97459.19;5096475;28;20200;-74
2023/12/08 01:14:46;;;;;;;9.90;8.20;;;;;;;2.08;100.00;97452.03;5096480;28;20291;-74
2023/12/08 01:17:12;;;;;;;9.57;7.90;;;;;;;2.09;100.00;97435.31;5095527;28;20290;-74
2023/12/08 01:19:39;;;;;;;8.90;7.63;;;;;;;2.09;100.00;97407.31;5095495;28;20228;-74
2023/12/08 01:22:05;;;;;;;9.07;7.33;;;;;;;2.07;100.00;97396.16;5096315;28;20203;-74
2023/12/08 01:24:31;;;;;;;9.97;7.53;;;;;;;2.10;100.00;97398.44;5096321;28;20211;-74
2023/12/08 01:26:58;;;;;;;8.67;7.73;;;;;;;2.01;100.00;97420.50;5096214;28;20204;-74
2023/12/08 01:29:24;;;;;;;8.53;7.60;;;;;;;1.96;100.00;97432.50;5096131;28;20220;-74
2023/12/08 01:31:51;;;;;;;9.57;7.67;;;;;;;1.95;100.00;97450.06;5095836;28;20208;-74
2023/12/08 01:34:17;;;;;;;9.27;8.20;;;;;;;2.00;100.00;97457.38;5096091;28;20204;-74
2023/12/08 01:36:43;;;;;;;9.47;7.97;;;;;;;1.87;100.00;97458.00;5096039;28;20206;-74
2023/12/08 01:39:10;;;;;;;9.23;7.97;;;;;;;1.97;100.00;97471.66;5095836;28;20232;-74
2023/12/08 01:41:36;;;;;;;9.80;7.53;;;;;;;2.11;100.00;97459.53;5095988;28;20200;-74
2023/12/08 01:44:02;;;;;;;11.13;8.37;;;;;;;2.01;100.00;97456.38;5095940;28;20203;-74
2023/12/08 01:46:30;;;;;;;10.73;7.97;;;;;;;1.98;100.00;97446.25;5095991;28;20203;-74
2023/12/08 01:48:58;;;;;;;8.50;7.20;;;;;;;2.03;100.00;97436.03;5095674;28;20230;-74
2023/12/08 01:51:25;;;;;;;8.53;7.63;;;;;;;2.10;100.00;97434.31;5095718;28;20203;-74
2023/12/08 01:53:51;;;;;;;9.57;7.43;;;;;;;2.02;100.00;97447.50;5095707;28;20204;-74
2023/12/08 01:56:18;;;;;;;9.83;8.00;;;;;;;2.04;100.00;97435.03;5095391;28;20685;-74
2023/12/08 01:58:45;;;;;;;10.20;8.50;;;;;;;2.07;100.00;97435.50;5095442;28;20210;-74
2023/12/08 02:01:11;;;;;;;10.33;8.23;;;;;;;2.09;100.00;97437.94;5095617;28;20595;-74
2023/12/08 02:03:40;;;;;;;11.33;8.00;;;;;;;2.10;100.00;97443.00;5095630;28;20571;-74
2023/12/08 02:06:06;;;;;;;9.87;8.17;;;;;;;2.07;100.00;97440.72;5095511;28;20212;-74
2023/12/08 02:08:33;;;;;;;11.93;8.33;;;;;;;2.15;100.00;97442.44;5095035;28;20675;-74
2023/12/08 02:10:59;;;;;;;10.97;7.63;;;;;;;2.11;100.00;97434.13;5095031;28;20689;-74
2023/12/08 02:13:26;;;;;;;10.90;7.83;;;;;;;2.09;100.00;97430.91;5095338;28;20203;-74
2023/12/08 02:15:58;;;;;;;10.10;7.53;;;;;;;2.10;100.00;97431.69;5095294;28;20204;-74
2023/12/08 02:18:25;;;;;;;9.90;7.53;;;;;;;2.09;100.00;97440.56;5094964;28;20184;-74
2023/12/08 02:20:52;;;;;;;8.87;7.00;;;;;;;2.16;100.00;97438.84;5094633;28;20694;-74
2023/12/08 02:23:18;;;;;;;8.00;6.90;;;;;;;2.13;100.00;97433.97;5095061;28;20208;-74
2023/12/08 02:25:45;;;;;;;10.90;7.57;;;;;;;2.12;100.00;97440.22;5094957;28;20207;-74
2023/12/08 02:28:11;;;;;;;8.90;6.80;;;;;;;2.12;100.00;97440.22;5094883;28;20206;-74
2023/12/08 02:30:37;;;;;;;7.17;6.23;;;;;;;2.22;100.00;97432.88;5094411;28;20598;-74
2023/12/08 02:33:15;;;;;;;10.13;7.40;;;;;;;2.16;100.00;97428.38;5094774;28;20203;-74
2023/12/08 02:35:43;;;;;;;7.23;6.37;;;;;;;2.18;100.00;97435.06;5094603;28;20265;-74
2023/12/08 02:38:12;;;;;;;7.60;6.80;;;;;;;2.12;100.00;97432.34;5094594;28;20282;-74
2023/12/08 02:40:39;;;;;;;7.97;6.73;;;;;;;2.15;100.00;97424.91;5076093;28;20227;-74
2023/12/08 02:43:06;;;;;;;8.07;6.80;;;;;;;2.25;100.00;97419.41;5094471;28;20290;-74
2023/12/08 02:45:32;;;;;;;7.43;6.73;;;;;;;2.21;100.00;97433.88;5094399;28;20204;-74
2023/12/08 02:47:58;;;;;;;8.30;6.20;;;;;;;2.23;100.00;97430.06;5093992;28;20219;-74
2023/12/08 02:50:25;;;;;;;7.00;6.30;;;;;;;2.24;100.00;97430.88;5076347;28;20262;-74
2023/12/08 02:52:51;;;;;;;8.67;6.63;;;;;;;2.26;100.00;97424.44;5094723;28;20207;-74
2023/12/08 02:55:17;;;;;;;7.00;5.73;;;;;;;2.28;100.00;97419.84;5094465;28;20207;-74
2023/12/08 02:57:44;;;;;;;9.07;6.17;;;;;;;2.26;100.00;97415.78;5094124;28;20203;-74
2023/12/08 03:00:11;;;;;;;7.50;6.73;;;;;;;2.25;100.00;97422.03;5093964;28;20242;-74
2023/12/08 03:02:37;;;;;;;6.43;5.83;;;;;;;2.30;100.00;97414.44;5094080;28;20257;-74
2023/12/08 03:05:04;;;;;;;6.80;5.13;;;;;;;2.38;96.83;97404.63;5094222;28;20230;-74
2023/12/08 03:07:31;;;;;;;7.77;6.00;;;;;;;2.43;100.00;97409.34;5093964;28;20214;-74
2023/12/08 03:09:57;;;;;;;6.40;5.17;;;;;;;2.40;99.54;97396.59;5094478;28;20219;-74
2023/12/08 03:12:23;;;;;;;8.13;6.23;;;;;;;2.47;97.12;97395.66;5094082;28;20219;-74
2023/12/08 03:14:50;;;;;;;7.97;6.80;;;;;;;2.33;99.93;97385.19;5094185;28;20204;-74
2023/12/08 03:17:16;;;;;;;8.47;7.40;;;;;;;2.29;100.00;97379.50;5093950;28;20203;-74
2023/12/08 03:19:43;;;;;;;9.77;7.47;;;;;;;2.24;100.00;97383.66;5093939;28;20315;-74
2023/12/08 03:22:09;;;;;;;9.80;7.97;;;;;;;2.18;100.00;97376.53;5094276;28;20215;-74
2023/12/08 03:24:35;;;;;;;11.30;7.30;;;;;;;2.14;100.00;97381.34;5094263;28;20211;-74
2023/12/08 03:27:02;;;;;;;8.37;7.47;;;;;;;2.16;100.00;97397.69;5093943;28;20204;-74
2023/12/08 03:29:28;;;;;;;11.37;8.20;;;;;;;2.16;100.00;97375.94;5094172;28;20222;-74
2023/12/08 03:31:54;;;;;;;8.97;7.50;;;;;;;2.13;100.00;97378.91;5093919;28;20210;-74
2023/12/08 03:34:21;;;;;;;9.90;8.03;;;;;;;2.14;100.00;97391.00;5093827;28;20200;-74
2023/12/08 03:36:47;;;;;;;11.67;8.43;;;;;;;2.16;100.00;97400.31;5093613;28;20666;-74
2023/12/08 03:39:14;;;;;;;10.83;7.43;;;;;;;2.11;100.00;97383.50;5093649;28;20743;-74
2023/12/08 03:41:41;;;;;;;10.90;8.23;;;;;;;2.11;100.00;97397.44;5093908;28;20203;-74
2023/12/08 03:44:07;;;;;;;13.27;9.07;;;;;;;2.08;100.00;97408.28;5093930;28;20204;-74
2023/12/08 03:46:34;;;;;;;11.67;8.93;;;;;;;2.15;100.00;97403.94;5093825;28;20214;-74
2023/12/08 03:49:00;;;;;;;9.93;8.13;;;;;;;2.12;100.00;97400.88;5093210;28;20231;-74
2023/12/08 03:51:26;;;;;;;12.00;9.67;;;;;;;2.13;100.00;97399.88;5093665;28;20294;-74
2023/12/08 03:53:53;;;;;;;11.33;9.07;;;;;;;2.13;100.00;97399.88;5093624;28;20212;-74
2023/12/08 03:56:19;;;;;;;11.30;8.57;;;;;;;2.20;100.00;97396.34;5093234;28;20568;-74
2023/12/08 03:58:45;;;;;;;11.27;8.80;;;;;;;2.20;100.00;97395.50;5093467;28;20567;-74
2023/12/08 04:01:17;;;;;;;14.70;9.20;;;;;;;2.21;100.00;97400.59;5093662;28;20230;-74
2023/12/08 04:03:43;;;;;;;11.47;8.77;;;;;;;2.21;100.00;97392.72;5093097;28;20658;-74
2023/12/08 04:06:10;;;;;;;14.53;8.97;;;;;;;2.22;100.00;97406.66;5093216;28;20670;-74
2023/12/08 04:08:36;;;;;;;9.67;8.53;;;;;;;2.21;100.00;97399.78;5093345;28;20204;-74
2023/12/08 04:11:03;;;;;;;12.23;8.53;;;;;;;2.26;100.00;97410.53;5093495;28;20196;-74
2023/12/08 04:13:29;;;;;;;13.20;8.30;;;;;;;2.21;100.00;97413.69;5093472;28;20203;-74
2023/12/08 04:15:55;;;;;;;12.83;8.30;;;;;;;2.22;100.00;97417.13;5093162;28;20780;-74
2023/12/08 04:18:22;;;;;;;10.30;8.17;;;;;;;2.20;100.00;97419.13;5093043;28;20562;-74
2023/12/08 04:20:48;;;;;;;10.83;8.00;;;;;;;2.25;100.00;97437.75;5093141;28;20238;-74
2023/12/08 04:23:14;;;;;;;11.43;7.50;;;;;;;2.23;100.00;97426.63;5093111;28;20211;-74
2023/12/08 04:25:41;;;;;;;8.60;7.73;;;;;;;2.25;100.00;97432.53;5093167;28;20200;-74
2023/12/08 04:28:07;;;;;;;9.33;7.60;;;;;;;2.24;100.00;97417.75;5093301;28;20215;-74
2023/12/08 04:30:33;;;;;;;10.10;7.73;;;;;;;2.27;100.00;97417.41;5092854;28;20706;-74
2023/12/08 04:33:00;;;;;;;8.37;7.20;;;;;;;2.30;100.00;97406.56;5093041;28;20571;-74
2023/12/08 04:35:26;;;;;;;11.57;7.23;;;;;;;2.31;100.00;97414.22;5093120;28;20208;-74
2023/12/08 04:37:53;;;;;;;10.90;7.10;;;;;;;2.37;100.00;97412.69;5093004;28;20208;-74
2023/12/08 04:40:20;;;;;;;8.57;7.57;;;;;;;2.30;100.00;97417.06;5092725;28;20227;-74
2023/12/08 04:42:46;;;;;;;8.00;7.20;;;;;;;2.31;100.00;97414.22;5092883;28;20204;-74
2023/12/08 04:45:14;;;;;;;11.80;8.07;;;;;;;2.28;100.00;97414.59;5092970;28;20204;-74
2023/12/08 04:47:41;;;;;;;10.53;8.57;;;;;;;2.29;100.00;97403.09;5092841;28;20222;-74
2023/12/08 04:50:08;;;;;;;9.17;7.67;;;;;;;2.22;100.00;97394.34;5092861;28;20224;-74
2023/12/08 04:52:34;;;;;;;9.87;8.43;;;;;;;2.13;100.00;97395.47;5093949;28;20556;-74
2023/12/08 04:55:04;;;;;;;11.87;9.10;;;;;;;1.99;100.00;97388.38;5097268;28;20236;-74
2023/12/08 04:57:30;;;;;;;12.30;8.63;;;;;;;2.01;100.00;97381.19;5096278;28;20547;-74
2023/12/08 04:59:57;;;;;;;14.40;9.47;;;;;;;2.09;100.00;97385.50;5096361;28;20277;-74
2023/12/08 05:02:23;;;;;;;14.70;8.83;;;;;;;2.09;100.00;97375.84;5096351;28;20208;-74
2023/12/08 05:04:49;;;;;;;10.07;8.93;;;;;;;2.10;100.00;97385.31;5096464;28;20206;-74
2023/12/08 05:07:16;;;;;;;13.47;8.47;;;;;;;2.10;100.00;97371.41;5096310;28;20227;-74
2023/12/08 05:09:42;;;;;;;13.00;9.23;;;;;;;2.12;100.00;97364.19;5096139;28;20230;-74
2023/12/08 05:12:09;;;;;;;13.57;9.37;;;;;;;2.16;100.00;97362.81;5096540;28;20211;-74
2023/12/08 05:14:35;;;;;;;11.77;9.00;;;;;;;2.16;100.00;97357.56;5095934;28;20211;-74
2023/12/08 05:17:01;;;;;;;14.90;9.10;;;;;;;2.15;100.00;97362.00;5095966;28;20206;-74
2023/12/08 05:19:28;;;;;;;12.70;9.87;;;;;;;2.17;100.00;97359.19;5096120;28;20256;-74
2023/12/08 05:21:56;;;;;;;11.63;9.13;;;;;;;2.25;100.00;97366.97;5095901;28;20200;-74
2023/12/08 05:24:22;;;;;;;12.30;9.67;;;;;;;2.27;100.00;97371.03;5095634;28;20206;-75
2023/12/08 05:26:48;;;;;;;17.83;10.00;;;;;;;2.25;100.00;97372.22;5095709;28;20200;-74
2023/12/08 05:29:15;;;;;;;30.47;16.60;;;;;;;2.27;100.00;97365.78;5095644;28;20227;-74
2023/12/08 05:31:42;;;;;;;26.20;15.20;;;;;;;2.31;100.00;97371.47;5095862;28;20202;-74
2023/12/08 05:34:08;;;;;;;25.83;16.07;;;;;;;2.23;100.00;97368.94;5095689;28;20203;-74
2023/12/08 05:36:34;;;;;;;28.63;17.00;;;;;;;2.23;100.00;97376.81;5095228;28;20235;-75
2023/12/08 05:39:01;;;;;;;23.67;14.27;;;;;;;2.18;100.00;97376.53;5095596;28;20228;-75
2023/12/08 05:41:27;;;;;;;15.40;11.73;;;;;;;2.09;100.00;97378.47;5095605;28;20223;-75
2023/12/08 05:43:54;;;;;;;15.13;10.93;;;;;;;2.13;100.00;97384.16;5094956;28;20204;-75
2023/12/08 05:46:20;;;;;;;13.93;10.23;;;;;;;2.07;100.00;97369.94;5094575;28;20261;-75
2023/12/08 05:48:48;;;;;;;13.17;10.13;;;;;;;2.08;100.00;97378.66;5094629;28;20212;-75
2023/12/08 05:51:14;;;;;;;14.17;10.90;;;;;;;2.09;100.00;97382.88;5095501;28;20206;-75
2023/12/08 05:53:40;;;;;;;12.40;10.23;;;;;;;2.11;100.00;97378.25;5095289;28;20214;-75
2023/12/08 05:56:07;;;;;;;13.47;9.87;;;;;;;2.01;100.00;97377.72;5095192;28;20570;-75
2023/12/08 05:58:33;;;;;;;12.00;9.40;;;;;;;2.05;100.00;97368.50;5094937;28;20204;-75
2023/12/08 06:01:00;;;;;;;13.90;8.63;;;;;;;2.11;100.00;97375.63;5095296;28;20224;-75
2023/12/08 06:03:26;;;;;;;10.70;8.67;;;;;;;2.02;100.00;97385.41;5094522;28;20200;-75
2023/12/08 06:05:52;;;;;;;9.20;8.13;;;;;;;2.03;100.00;97381.78;5094252;28;20200;-75
2023/12/08 06:08:19;;;;;;;9.27;7.50;;;;;;;2.00;100.00;97381.34;5094930;28;20204;-75
2023/12/08 06:10:45;;;;;;;11.00;8.17;;;;;;;1.99;100.00;97370.03;5095105;28;20243;-75
2023/12/08 06:13:13;;;;;;;12.10;8.57;;;;;;;2.05;100.00;97376.38;5095282;28;20573;-75
2023/12/08 06:15:39;;;;;;;10.53;8.10;;;;;;;1.94;100.00;97385.50;5094872;28;20216;-75
2023/12/08 06:18:05;;;;;;;12.03;8.80;;;;;;;2.00;100.00;97365.63;5094509;28;20208;-75
2023/12/08 06:20:32;;;;;;;9.40;8.30;;;;;;;2.02;100.00;97371.50;5095300;28;20232;-74
2023/12/08 06:22:58;;;;;;;11.10;9.33;;;;;;;1.99;100.00;97366.63;5094832;28;20207;-74
2023/12/08 06:25:25;;;;;;;10.87;9.17;;;;;;;2.04;100.00;97374.75;5094709;28;20200;-75
2023/12/08 06:27:51;;;;;;;12.97;9.80;;;;;;;2.03;100.00;97365.28;5094670;28;20214;-74
2023/12/08 06:30:17;;;;;;;16.13;10.33;;;;;;;2.08;100.00;97370.78;5094575;28;20297;-75
2023/12/08 06:32:44;;;;;;;12.53;9.83;;;;;;;2.10;100.00;97371.41;5094531;28;20625;-75
2023/12/08 06:35:10;;;;;;;11.17;9.10;;;;;;;2.00;100.00;97374.31;5094123;28;20355;-75
2023/12/08 06:37:37;;;;;;;10.37;9.27;;;;;;;2.01;100.00;97369.88;5094049;28;20208;-75
2023/12/08 06:40:04;;;;;;;13.33;9.47;;;;;;;2.07;100.00;97371.78;5094312;28;20235;-75
2023/12/08 06:42:30;;;;;;;13.80;10.27;;;;;;;2.10;100.00;97376.63;5093528;28;20609;-75
2023/12/08 06:44:57;;;;;;;13.63;9.83;;;;;;;2.11;100.00;97381.69;5094011;28;20204;-75
2023/12/08 06:47:23;;;;;;;13.40;10.27;;;;;;;2.17;100.00;97374.94;5093901;28;20694;-75
2023/12/08 06:49:49;;;;;;;12.63;9.17;;;;;;;2.18;100.00;97372.13;5093911;28;20231;-75
2023/12/08 06:52:16;;;;;;;12.07;9.33;;;;;;;2.12;100.00;97372.03;5093784;28;20208;-75
2023/12/08 06:54:42;;;;;;;12.60;10.07;;;;;;;2.20;100.00;97374.53;5093934;28;20204;-75
2023/12/08 06:57:09;;;;;;;12.60;9.77;;;;;;;2.18;100.00;97376.53;5093577;28;20204;-75
2023/12/08 06:59:35;;;;;;;9.57;7.87;;;;;;;2.33;100.00;97377.31;5093735;28;20594;-74
2023/12/08 07:02:01;;;;;;;14.53;8.97;;;;;;;2.32;100.00;97375.69;5093566;28;20687;-74
2023/12/08 07:04:28;;;;;;;12.13;8.97;;;;;;;2.35;100.00;97377.97;5094143;28;20574;-74
2023/12/08 07:06:54;;;;;;;14.60;7.77;;;;;;;2.38;100.00;97372.34;5094013;28;20576;-75
2023/12/08 07:09:21;;;;;;;12.30;7.43;;;;;;;2.42;100.00;97369.19;5093474;28;20229;-74
2023/12/08 07:11:47;;;;;;;10.57;8.10;;;;;;;2.44;100.00;97369.00;5093215;28;20200;-74
2023/12/08 07:14:13;;;;;;;9.20;7.57;;;;;;;2.48;100.00;97368.44;5093342;28;20302;-74
2023/12/08 07:16:43;;;;;;;10.17;7.63;;;;;;;2.62;100.00;97372.03;5092455;28;20206;-74
2023/12/08 07:19:10;;;;;;;9.37;7.53;;;;;;;2.62;100.00;97374.66;5093932;28;20297;-74
2023/12/08 07:21:45;;;;;;;10.83;8.47;;;;;;;2.64;100.00;97375.25;5093497;28;20223;-74
2023/12/08 07:24:12;;;;;;;12.10;7.97;;;;;;;2.51;100.00;97375.13;5093335;28;20648;-74
2023/12/08 07:26:39;;;;;;;9.90;7.47;;;;;;;2.57;100.00;97372.56;5093579;28;20304;-74
2023/12/08 07:29:05;;;;;;;11.97;8.00;;;;;;;2.56;100.00;97370.13;5093358;28;20232;-73
2023/12/08 07:31:31;;;;;;;10.67;8.90;;;;;;;2.55;100.00;97371.13;5093359;28;20207;-73
2023/12/08 07:33:58;;;;;;;11.27;8.00;;;;;;;2.62;100.00;97382.50;5093355;28;20206;-75
2023/12/08 07:36:24;;;;;;;10.33;7.93;;;;;;;2.64;100.00;97383.13;5093351;28;20214;-74
2023/12/08 07:38:50;;;;;;;11.97;7.07;;;;;;;2.78;100.00;97385.72;5093146;28;20214;-74
2023/12/08 07:41:17;;;;;;;8.13;6.07;;;;;;;2.92;100.00;97376.97;5093952;28;20227;-74
2023/12/08 07:43:43;;;;;;;13.03;7.90;;;;;;;2.94;100.00;97379.41;5093362;28;20208;-74
2023/12/08 07:46:09;;;;;;;9.50;6.93;;;;;;;2.88;100.00;97374.91;5094125;28;20203;-74
2023/12/08 07:48:36;;;;;;;9.80;6.93;;;;;;;2.93;100.00;97378.59;5092938;28;20218;-74
2023/12/08 07:51:02;;;;;;;10.53;7.97;;;;;;;2.77;100.00;97370.16;5093199;28;20202;-74
2023/12/08 07:53:28;;;;;;;11.53;8.53;;;;;;;2.68;100.00;97369.47;5093161;28;20200;-74
2023/12/08 07:55:55;;;;;;;10.97;8.13;;;;;;;2.60;100.00;97366.13;5093450;28;20231;-74
2023/12/08 07:58:21;;;;;;;11.27;9.23;;;;;;;2.60;100.00;97366.13;5093050;28;20223;-74
2023/12/08 08:00:48;;;;;;;15.27;9.17;;;;;;;2.67;100.00;97364.41;5092710;28;20595;-74
2023/12/08 08:03:15;;;;;;;12.97;9.50;;;;;;;2.65;100.00;97364.59;5093348;28;20253;-74
2023/12/08 08:05:41;;;;;;;12.37;8.90;;;;;;;2.77;100.00;97367.53;5093202;28;20211;-74
2023/12/08 08:08:07;;;;;;;13.87;8.73;;;;;;;2.85;100.00;97373.44;5093109;28;20204;-74
2023/12/08 08:10:34;;;;;;;12.27;9.00;;;;;;;3.01;100.00;97372.41;5092748;28;20223;-74
2023/12/08 08:13:01;;;;;;;10.70;8.77;;;;;;;3.01;100.00;97373.22;5092904;28;20203;-74
2023/12/08 08:15:27;;;;;;;11.07;8.57;;;;;;;3.08;100.00;97376.69;5094057;28;20204;-74
2023/12/08 08:17:53;;;;;;;14.53;10.63;;;;;;;3.08;100.00;97381.16;5092987;28;20207;-74
2023/12/08 08:20:20;;;;;;;12.87;10.20;;;;;;;3.08;100.00;97389.03;5092733;28;20220;-74
2023/12/08 08:22:46;;;;;;;14.20;9.53;;;;;;;3.21;100.00;97386.53;5092674;28;20269;-74
2023/12/08 08:25:12;;;;;;;14.77;10.40;;;;;;;3.18;100.00;97397.41;5093041;28;20208;-74
2023/12/08 08:27:39;;;;;;;15.93;10.13;;;;;;;3.23;100.00;97398.47;5094281;28;20284;-74
2023/12/08 08:30:06;;;;;;;16.47;10.70;;;;;;;3.27;100.00;97397.09;5096469;28;20234;-74
2023/12/08 08:32:32;;;;;;;13.40;10.40;;;;;;;3.40;100.00;97404.28;5096767;28;20674;-74
2023/12/08 08:34:59;;;;;;;16.17;10.20;;;;;;;3.41;100.00;97403.25;5096950;28;20199;-74
2023/12/08 08:37:27;;;;;;;13.67;10.10;;;;;;;3.46;100.00;97395.63;5097008;28;20206;-74
2023/12/08 08:39:53;;;;;;;12.83;9.43;;;;;;;3.46;100.00;97406.94;5096947;28;20231;-74
2023/12/08 08:42:20;;;;;;;12.63;9.27;;;;;;;3.50;100.00;97413.44;5096654;28;20231;-74
2023/12/08 08:44:46;;;;;;;13.80;9.60;;;;;;;3.58;100.00;97410.69;5096519;28;20200;-74
2023/12/08 08:47:13;;;;;;;15.30;9.20;;;;;;;3.66;100.00;97410.53;5096223;28;20704;-74
2023/12/08 08:49:39;;;;;;;10.93;8.20;;;;;;;3.67;100.00;97403.47;5096737;28;20593;-74
2023/12/08 08:52:05;;;;;;;13.93;9.17;;;;;;;3.69;100.00;97420.66;5096964;28;20206;-74
2023/12/08 08:54:32;;;;;;;12.87;9.50;;;;;;;3.75;100.00;97424.34;5096409;28;20207;-74
2023/12/08 08:56:58;;;;;;;14.40;8.93;;;;;;;3.79;100.00;97420.34;5096279;28;20569;-74
2023/12/08 08:59:25;;;;;;;10.90;7.70;;;;;;;3.78;100.00;97421.31;5096055;28;20317;-74
2023/12/08 09:01:51;;;;;;;9.73;7.87;;;;;;;3.80;100.00;97421.97;5096511;28;20220;-74
2023/12/08 09:04:17;;;;;;;11.13;8.17;;;;;;;3.78;100.00;97423.94;5095807;28;20302;-74
2023/12/08 09:06:44;;;;;;;12.73;7.90;;;;;;;3.83;100.00;97426.81;5096131;28;20204;-74
2023/12/08 09:09:11;;;;;;;10.23;8.03;;;;;;;3.86;100.00;97421.19;5096419;28;20228;-74
2023/12/08 09:11:37;;;;;;;9.87;7.27;;;;;;;3.88;100.00;97422.63;5096256;28;20261;-74
2023/12/08 09:14:04;;;;;;;11.90;9.70;;;;;;;3.88;100.00;97427.09;5096143;28;20206;-74
2023/12/08 09:16:30;;;;;;;17.13;13.33;;;;;;;3.81;100.00;97431.47;5096026;28;20203;-74
2023/12/08 09:18:56;;;;;;;17.63;13.90;;;;;;;3.74;100.00;97434.03;5095917;28;20223;-74
2023/12/08 09:21:23;;;;;;;20.20;15.20;;;;;;;3.72;100.00;97435.25;5095975;28;20224;-74
2023/12/08 09:23:49;;;;;;;19.33;14.47;;;;;;;3.67;100.00;97440.25;5095845;28;20207;-74
2023/12/08 09:26:15;;;;;;;24.50;16.43;;;;;;;3.64;100.00;97443.25;5095607;28;20218;-74
2023/12/08 09:28:42;;;;;;;25.60;16.87;;;;;;;3.56;100.00;97433.69;5095484;28;20204;-74
2023/12/08 09:31:08;;;;;;;24.23;17.10;;;;;;;3.57;100.00;97434.53;5095618;28;20200;-74
2023/12/08 09:33:34;;;;;;;22.63;16.23;;;;;;;3.57;100.00;97439.78;5095945;28;20207;-74
2023/12/08 09:36:01;;;;;;;29.10;17.03;;;;;;;3.60;100.00;97428.88;5095684;28;20204;-74
2023/12/08 09:38:27;;;;;;;26.23;17.07;;;;;;;3.61;100.00;97430.53;5094779;28;20211;-74
2023/12/08 09:40:54;;;;;;;27.87;17.47;;;;;;;3.60;100.00;97429.69;5094712;28;20702;-74
2023/12/08 09:43:29;;;;;;;26.23;16.33;;;;;;;3.66;100.00;97430.75;5095164;28;20208;-74
2023/12/08 09:45:56;;;;;;;20.80;14.87;;;;;;;3.70;100.00;97427.53;5095473;28;20192;-74
2023/12/08 09:48:26;;;;;;;21.20;15.57;;;;;;;3.59;100.00;97433.34;5094890;28;20563;-74
2023/12/08 09:50:55;;;;;;;19.30;15.10;;;;;;;3.66;100.00;97426.28;5095224;28;20224;-74
2023/12/08 09:53:22;;;;;;;17.53;14.73;;;;;;;3.88;100.00;97427.88;5095039;28;20582;-74
2023/12/08 09:55:49;;;;;;;20.63;15.07;;;;;;;3.74;100.00;97427.97;5095360;28;20206;-74
2023/12/08 09:58:17;;;;;;;24.50;15.33;;;;;;;3.74;100.00;97420.91;5094873;28;20204;-74
2023/12/08 10:00:44;;;;;;;21.53;15.53;;;;;;;3.74;100.00;97420.06;5094894;28;20245;-74
2023/12/08 10:03:10;;;;;;;18.47;14.57;;;;;;;3.82;100.00;97425.19;5094900;28;20215;-74
2023/12/08 10:05:37;;;;;;;22.60;14.33;;;;;;;3.90;100.00;97414.53;5094980;28;20721;-74
2023/12/08 10:08:04;;;;;;;17.13;13.93;;;;;;;3.90;100.00;97425.88;5095176;28;20217;-74
2023/12/08 10:10:30;;;;;;;17.20;14.17;;;;;;;3.93;100.00;97419.44;5095106;28;20224;-74
2023/12/08 10:12:58;;;;;;;20.93;15.73;;;;;;;3.97;100.00;97428.56;5094620;28;20254;-74
2023/12/08 10:15:25;;;;;;;21.20;15.40;;;;;;;4.05;100.00;97412.59;5077075;28;20207;-74
2023/12/08 10:17:52;;;;;;;24.00;15.80;;;;;;;4.01;100.00;97427.13;5094853;28;20203;-74
2023/12/08 10:20:20;;;;;;;24.13;14.97;;;;;;;4.02;100.00;97426.16;5094797;28;20234;-74
2023/12/08 10:22:57;;;;;;;21.40;15.50;;;;;;;4.06;100.00;97420.31;5094648;28;20228;-74
2023/12/08 10:25:26;;;;;;;21.30;15.80;;;;;;;4.05;100.00;97415.22;5094631;28;20195;-74
2023/12/08 10:27:56;;;;;;;23.93;14.83;;;;;;;4.08;100.00;97418.31;5094471;28;20215;-74
2023/12/08 10:30:26;;;;;;;21.27;15.03;;;;;;;4.13;100.00;97410.66;5094614;28;20219;-74
2023/12/08 10:32:52;;;;;;;21.83;15.33;;;;;;;4.09;100.00;97419.09;5094694;28;20196;-74
2023/12/08 10:35:19;;;;;;;23.73;16.13;;;;;;;4.25;100.00;97421.44;5094712;28;20210;-74
2023/12/08 10:37:45;;;;;;;23.73;15.70;;;;;;;4.20;100.00;97418.56;5094773;28;20215;-74
2023/12/08 10:40:18;;;;;;;24.73;16.47;;;;;;;4.21;100.00;97412.31;5094491;28;20314;-74
2023/12/08 10:42:47;;;;;;;22.50;15.93;;;;;;;4.20;100.00;97410.69;5093982;28;20602;-74
2023/12/08 10:45:14;;;;;;;21.50;16.07;;;;;;;4.20;100.00;97411.47;5094105;28;20678;-74
2023/12/08 10:47:42;;;;;;;21.57;15.03;;;;;;;4.28;100.00;97413.94;5093828;28;20670;-74
2023/12/08 10:50:10;;;;;;;26.67;16.13;;;;;;;4.36;100.00;97412.97;5094302;28;20273;-74
2023/12/08 10:52:39;;;;;;;22.23;15.47;;;;;;;4.38;100.00;97417.03;5094583;28;20195;-74
2023/12/08 10:55:07;;;;;;;20.43;15.20;;;;;;;4.44;100.00;97418.06;5094028;28;20273;-74
2023/12/08 10:57:34;;;;;;;25.73;14.20;;;;;;;4.51;100.00;97416.28;5094111;28;20244;-74
2023/12/08 11:00:12;;;;;;;18.50;12.80;;;;;;;4.64;100.00;97408.44;5093453;28;20234;-74
2023/12/08 11:02:41;;;;;;;15.27;11.57;;;;;;;4.72;100.00;97406.44;5093964;28;20207;-75
2023/12/08 11:05:10;;;;;;;21.30;14.17;;;;;;;4.70;100.00;97407.66;5094285;28;20203;-75
2023/12/08 11:07:39;;;;;;;19.40;14.67;;;;;;;4.79;100.00;97401.19;5094030;28;20215;-74
2023/12/08 11:10:11;;;;;;;18.27;14.63;;;;;;;4.87;100.00;97398.38;5094100;28;20220;-74
2023/12/08 11:12:44;;;;;;;18.60;14.40;;;;;;;4.83;100.00;97403.22;5093929;28;20223;-74
2023/12/08 11:15:16;;;;;;;19.87;12.90;;;;;;;4.93;100.00;97398.38;5093661;28;20199;-74
2023/12/08 11:17:47;;;;;;;16.40;13.20;;;;;;;4.91;100.00;97391.69;5093964;28;20191;-74
2023/12/08 11:20:14;;;;;;;17.40;12.93;;;;;;;4.88;100.00;97395.53;5093672;28;20566;-74
2023/12/08 11:22:41;;;;;;;16.63;12.60;;;;;;;4.98;100.00;97403.06;5093730;28;20231;-74
2023/12/08 11:25:13;;;;;;;16.30;12.77;;;;;;;5.00;100.00;97398.41;5094069;28;20212;-74